sensor_id;sensor_type;location;lat;lon;timestamp;temperature;humidity
16160;DHT22;8185;57.818;15.224;2023-09-19T00:01:03;16.10;99.90
16160;DHT22;8185;57.818;15.224;2023-09-19T00:03:33;16.00;99.90
16160;DHT22;8185;57.818;15.224;2023-09-19T00:06:03;16.00;99.90
16160;DHT22;8185;57.818;15.224;2023-09-19T00:08:33;16.00;99.90
16160;DHT22;8185;57.818;15.224;2023-09-19T00:11:01;16.10;99.90
16160;DHT22;8185;57.818;15.224;2023-09-19T00:13:29;16.10;99.90
16160;DHT22;8185;57.818;15.224;2023-09-19T00:15:57;16.10;99.90
16160;DHT22;8185;57.818;15.224;2023-09-19T00:18:26;16.10;99.90
16160;DHT22;8185;57.818;15.224;2023-09-19T00:20:58;16.10;99.90
16160;DHT22;8185;57.818;15.224;2023-09-19T00:23:25;16.10;99.90
16160;DHT22;8185;57.818;15.224;2023-09-19T00:25:54;16.20;99.90
16160;DHT22;8185;57.818;15.224;2023-09-19T00:28:25;16.20;99.90
16160;DHT22;8185;57.818;15.224;2023-09-19T00:30:53;16.20;99.90
16160;DHT22;8185;57.818;15.224;2023-09-19T00:33:21;16.20;99.90
16160;DHT22;8185;57.818;15.224;2023-09-19T00:35:53;16.20;99.90
16160;DHT22;8185;57.818;15.224;2023-09-19T00:38:22;16.20;99.90
16160;DHT22;8185;57.818;15.224;2023-09-19T00:40:54;16.30;99.90
16160;DHT22;8185;57.818;15.224;2023-09-19T00:43:22;16.30;99.90
16160;DHT22;8185;57.818;15.224;2023-09-19T00:45:52;16.30;99.90
16160;DHT22;8185;57.818;15.224;2023-09-19T00:48:21;16.30;99.90
16160;DHT22;8185;57.818;15.224;2023-09-19T00:50:49;16.30;99.90
16160;DHT22;8185;57.818;15.224;2023-09-19T00:53:20;16.30;99.90
16160;DHT22;8185;57.818;15.224;2023-09-19T00:55:49;16.30;99.90
16160;DHT22;8185;57.818;15.224;2023-09-19T00:58:18;16.40;99.90
16160;DHT22;8185;57.818;15.224;2023-09-19T01:00:48;16.40;99.90
16160;DHT22;8185;57.818;15.224;2023-09-19T01:03:16;16.40;99.90
16160;DHT22;8185;57.818;15.224;2023-09-19T01:05:44;16.50;99.90
16160;DHT22;8185;57.818;15.224;2023-09-19T01:08:11;16.50;99.90
16160;DHT22;8185;57.818;15.224;2023-09-19T01:10:46;16.50;99.90
16160;DHT22;8185;57.818;15.224;2023-09-19T01:13:23;16.50;99.90
16160;DHT22;8185;57.818;15.224;2023-09-19T01:16:00;16.50;99.90
16160;DHT22;8185;57.818;15.224;2023-09-19T01:18:38;16.50;99.90
16160;DHT22;8185;57.818;15.224;2023-09-19T01:21:14;16.50;99.90
16160;DHT22;8185;57.818;15.224;2023-09-19T01:27:03;16.50;99.90
16160;DHT22;8185;57.818;15.224;2023-09-19T01:29:38;16.50;99.90
16160;DHT22;8185;57.818;15.224;2023-09-19T01:32:08;16.50;99.90
16160;DHT22;8185;57.818;15.224;2023-09-19T01:34:46;16.50;99.90
16160;DHT22;8185;57.818;15.224;2023-09-19T01:37:14;16.50;99.90
16160;DHT22;8185;57.818;15.224;2023-09-19T01:39:47;16.40;99.90
16160;DHT22;8185;57.818;15.224;2023-09-19T01:42:28;16.40;99.90
16160;DHT22;8185;57.818;15.224;2023-09-19T01:45:06;16.40;99.90
16160;DHT22;8185;57.818;15.224;2023-09-19T01:47:46;16.30;99.90
16160;DHT22;8185;57.818;15.224;2023-09-19T01:50:20;16.20;99.90
16160;DHT22;8185;57.818;15.224;2023-09-19T01:52:56;16.20;99.90
16160;DHT22;8185;57.818;15.224;2023-09-19T01:55:28;16.10;99.90
16160;DHT22;8185;57.818;15.224;2023-09-19T01:58:04;16.10;99.90
16160;DHT22;8185;57.818;15.224;2023-09-19T02:00:36;16.00;99.90
16160;DHT22;8185;57.818;15.224;2023-09-19T02:03:07;16.00;99.90
16160;DHT22;8185;57.818;15.224;2023-09-19T02:05:35;16.00;99.90
16160;DHT22;8185;57.818;15.224;2023-09-19T02:08:03;16.00;99.90
16160;DHT22;8185;57.818;15.224;2023-09-19T02:10:31;16.10;99.90
16160;DHT22;8185;57.818;15.224;2023-09-19T02:13:00;16.10;99.90
16160;DHT22;8185;57.818;15.224;2023-09-19T02:15:30;16.00;99.90
16160;DHT22;8185;57.818;15.224;2023-09-19T02:18:02;16.00;99.90
16160;DHT22;8185;57.818;15.224;2023-09-19T02:20:31;16.00;99.90
16160;DHT22;8185;57.818;15.224;2023-09-19T02:22:58;16.10;99.90
16160;DHT22;8185;57.818;15.224;2023-09-19T02:25:26;16.20;99.90
16160;DHT22;8185;57.818;15.224;2023-09-19T02:27:54;16.20;99.90
16160;DHT22;8185;57.818;15.224;2023-09-19T02:30:24;16.20;99.90
16160;DHT22;8185;57.818;15.224;2023-09-19T02:32:52;16.30;99.90
16160;DHT22;8185;57.818;15.224;2023-09-19T02:35:19;16.30;99.90
16160;DHT22;8185;57.818;15.224;2023-09-19T02:37:49;16.30;99.90
16160;DHT22;8185;57.818;15.224;2023-09-19T02:40:16;16.30;99.90
16160;DHT22;8185;57.818;15.224;2023-09-19T02:42:48;16.30;99.90
16160;DHT22;8185;57.818;15.224;2023-09-19T02:45:16;16.40;99.90
16160;DHT22;8185;57.818;15.224;2023-09-19T02:47:45;16.30;99.90
16160;DHT22;8185;57.818;15.224;2023-09-19T02:50:12;16.30;99.90
16160;DHT22;8185;57.818;15.224;2023-09-19T02:52:42;16.30;99.90
16160;DHT22;8185;57.818;15.224;2023-09-19T02:55:12;16.30;99.90
16160;DHT22;8185;57.818;15.224;2023-09-19T02:57:46;16.30;99.90
16160;DHT22;8185;57.818;15.224;2023-09-19T03:00:14;16.40;99.90
16160;DHT22;8185;57.818;15.224;2023-09-19T03:02:42;16.40;99.90
16160;DHT22;8185;57.818;15.224;2023-09-19T03:05:12;16.40;99.90
16160;DHT22;8185;57.818;15.224;2023-09-19T03:07:39;16.40;99.90
16160;DHT22;8185;57.818;15.224;2023-09-19T03:10:11;16.40;99.90
16160;DHT22;8185;57.818;15.224;2023-09-19T03:12:38;16.40;99.90
16160;DHT22;8185;57.818;15.224;2023-09-19T03:15:06;16.40;99.90
16160;DHT22;8185;57.818;15.224;2023-09-19T03:17:36;16.40;99.90
16160;DHT22;8185;57.818;15.224;2023-09-19T03:20:05;16.40;99.90
16160;DHT22;8185;57.818;15.224;2023-09-19T03:22:34;16.40;99.90
16160;DHT22;8185;57.818;15.224;2023-09-19T03:25:02;16.40;99.90
16160;DHT22;8185;57.818;15.224;2023-09-19T03:27:35;16.40;99.90
16160;DHT22;8185;57.818;15.224;2023-09-19T03:30:03;16.40;99.90
16160;DHT22;8185;57.818;15.224;2023-09-19T03:32:34;16.40;99.90
16160;DHT22;8185;57.818;15.224;2023-09-19T03:35:02;16.40;99.90
16160;DHT22;8185;57.818;15.224;2023-09-19T03:37:31;16.40;99.90
16160;DHT22;8185;57.818;15.224;2023-09-19T03:39:59;16.40;99.90
16160;DHT22;8185;57.818;15.224;2023-09-19T03:42:30;16.40;99.90
16160;DHT22;8185;57.818;15.224;2023-09-19T03:44:59;16.40;99.90
16160;DHT22;8185;57.818;15.224;2023-09-19T03:47:31;16.30;99.90
16160;DHT22;8185;57.818;15.224;2023-09-19T03:49:59;16.30;99.90
16160;DHT22;8185;57.818;15.224;2023-09-19T03:52:26;16.30;99.90
16160;DHT22;8185;57.818;15.224;2023-09-19T03:54:54;16.30;99.90
16160;DHT22;8185;57.818;15.224;2023-09-19T03:57:22;16.30;99.90
16160;DHT22;8185;57.818;15.224;2023-09-19T03:59:49;16.30;99.90
16160;DHT22;8185;57.818;15.224;2023-09-19T04:02:20;16.30;99.90
16160;DHT22;8185;57.818;15.224;2023-09-19T04:04:50;16.30;99.90
16160;DHT22;8185;57.818;15.224;2023-09-19T04:07:18;16.30;99.90
16160;DHT22;8185;57.818;15.224;2023-09-19T04:09:48;16.30;99.90
16160;DHT22;8185;57.818;15.224;2023-09-19T04:12:16;16.30;99.90
16160;DHT22;8185;57.818;15.224;2023-09-19T04:14:43;16.30;99.90
16160;DHT22;8185;57.818;15.224;2023-09-19T04:17:11;16.30;99.90
16160;DHT22;8185;57.818;15.224;2023-09-19T04:19:40;16.30;99.90
16160;DHT22;8185;57.818;15.224;2023-09-19T04:22:08;16.30;99.90
16160;DHT22;8185;57.818;15.224;2023-09-19T04:24:37;16.30;99.90
16160;DHT22;8185;57.818;15.224;2023-09-19T04:27:05;16.30;99.90
16160;DHT22;8185;57.818;15.224;2023-09-19T04:29:33;16.30;99.90
16160;DHT22;8185;57.818;15.224;2023-09-19T04:32:01;16.30;99.90
16160;DHT22;8185;57.818;15.224;2023-09-19T04:34:30;16.30;99.90
16160;DHT22;8185;57.818;15.224;2023-09-19T04:36:59;16.30;99.90
16160;DHT22;8185;57.818;15.224;2023-09-19T04:39:27;16.30;99.90
16160;DHT22;8185;57.818;15.224;2023-09-19T04:41:55;16.30;99.90
16160;DHT22;8185;57.818;15.224;2023-09-19T04:44:24;16.30;99.90
16160;DHT22;8185;57.818;15.224;2023-09-19T04:46:51;16.40;99.90
16160;DHT22;8185;57.818;15.224;2023-09-19T04:49:19;16.40;99.90
16160;DHT22;8185;57.818;15.224;2023-09-19T04:51:46;16.30;99.90
16160;DHT22;8185;57.818;15.224;2023-09-19T04:54:15;16.30;99.90
16160;DHT22;8185;57.818;15.224;2023-09-19T04:56:44;16.30;99.90
16160;DHT22;8185;57.818;15.224;2023-09-19T04:59:11;16.20;99.90
16160;DHT22;8185;57.818;15.224;2023-09-19T05:01:41;16.20;99.90
16160;DHT22;8185;57.818;15.224;2023-09-19T05:04:08;16.20;99.90
16160;DHT22;8185;57.818;15.224;2023-09-19T05:06:36;16.20;99.90
16160;DHT22;8185;57.818;15.224;2023-09-19T05:09:03;16.20;99.90
16160;DHT22;8185;57.818;15.224;2023-09-19T05:11:33;16.20;99.90
16160;DHT22;8185;57.818;15.224;2023-09-19T05:14:00;16.40;99.90
16160;DHT22;8185;57.818;15.224;2023-09-19T05:16:29;16.40;99.90
16160;DHT22;8185;57.818;15.224;2023-09-19T05:18:58;16.40;99.90
16160;DHT22;8185;57.818;15.224;2023-09-19T05:21:27;16.50;99.90
16160;DHT22;8185;57.818;15.224;2023-09-19T05:23:56;16.50;99.90
16160;DHT22;8185;57.818;15.224;2023-09-19T05:26:23;16.50;99.90
16160;DHT22;8185;57.818;15.224;2023-09-19T05:28:52;16.50;99.90
16160;DHT22;8185;57.818;15.224;2023-09-19T05:31:19;16.50;99.90
16160;DHT22;8185;57.818;15.224;2023-09-19T05:33:47;16.50;99.90
16160;DHT22;8185;57.818;15.224;2023-09-19T05:36:15;16.40;99.90
16160;DHT22;8185;57.818;15.224;2023-09-19T05:38:43;16.40;99.90
16160;DHT22;8185;57.818;15.224;2023-09-19T05:41:11;16.30;99.90
16160;DHT22;8185;57.818;15.224;2023-09-19T05:43:39;16.30;99.90
16160;DHT22;8185;57.818;15.224;2023-09-19T05:46:08;16.20;99.90
16160;DHT22;8185;57.818;15.224;2023-09-19T05:48:36;16.10;99.90
16160;DHT22;8185;57.818;15.224;2023-09-19T05:51:06;16.10;99.90
16160;DHT22;8185;57.818;15.224;2023-09-19T05:53:33;16.00;99.90
16160;DHT22;8185;57.818;15.224;2023-09-19T05:56:01;16.00;99.90
16160;DHT22;8185;57.818;15.224;2023-09-19T05:58:28;16.00;99.90
16160;DHT22;8185;57.818;15.224;2023-09-19T06:00:56;16.00;99.90
16160;DHT22;8185;57.818;15.224;2023-09-19T06:03:25;16.00;99.90
16160;DHT22;8185;57.818;15.224;2023-09-19T06:05:52;16.10;99.90
16160;DHT22;8185;57.818;15.224;2023-09-19T06:08:23;16.10;99.90
16160;DHT22;8185;57.818;15.224;2023-09-19T06:10:52;16.10;99.90
16160;DHT22;8185;57.818;15.224;2023-09-19T06:13:19;16.10;99.90
16160;DHT22;8185;57.818;15.224;2023-09-19T06:15:47;16.20;99.90
16160;DHT22;8185;57.818;15.224;2023-09-19T06:18:15;16.30;99.90
16160;DHT22;8185;57.818;15.224;2023-09-19T06:20:47;16.30;99.90
16160;DHT22;8185;57.818;15.224;2023-09-19T06:23:16;16.30;99.90
16160;DHT22;8185;57.818;15.224;2023-09-19T06:25:46;16.40;99.90
16160;DHT22;8185;57.818;15.224;2023-09-19T06:28:14;16.40;99.90
16160;DHT22;8185;57.818;15.224;2023-09-19T06:30:44;16.40;99.90
16160;DHT22;8185;57.818;15.224;2023-09-19T06:33:12;16.40;99.90
16160;DHT22;8185;57.818;15.224;2023-09-19T06:35:40;16.40;99.90
16160;DHT22;8185;57.818;15.224;2023-09-19T06:38:09;16.40;99.90
16160;DHT22;8185;57.818;15.224;2023-09-19T06:40:39;16.40;99.90
16160;DHT22;8185;57.818;15.224;2023-09-19T06:43:10;16.40;99.90
16160;DHT22;8185;57.818;15.224;2023-09-19T06:45:37;16.40;99.90
16160;DHT22;8185;57.818;15.224;2023-09-19T06:48:06;16.40;99.90
16160;DHT22;8185;57.818;15.224;2023-09-19T06:50:33;16.30;99.90
16160;DHT22;8185;57.818;15.224;2023-09-19T06:53:02;16.40;99.90
16160;DHT22;8185;57.818;15.224;2023-09-19T06:55:31;16.50;99.90
16160;DHT22;8185;57.818;15.224;2023-09-19T06:57:58;16.50;99.90
16160;DHT22;8185;57.818;15.224;2023-09-19T07:00:26;16.60;99.90
16160;DHT22;8185;57.818;15.224;2023-09-19T07:02:57;16.60;99.90
16160;DHT22;8185;57.818;15.224;2023-09-19T07:05:27;16.60;99.90
16160;DHT22;8185;57.818;15.224;2023-09-19T07:07:55;16.60;99.90
16160;DHT22;8185;57.818;15.224;2023-09-19T07:10:25;16.70;99.90
16160;DHT22;8185;57.818;15.224;2023-09-19T07:12:58;16.70;99.90
16160;DHT22;8185;57.818;15.224;2023-09-19T07:15:26;16.80;99.90
16160;DHT22;8185;57.818;15.224;2023-09-19T07:17:54;16.70;99.90
16160;DHT22;8185;57.818;15.224;2023-09-19T07:20:23;16.80;99.90
16160;DHT22;8185;57.818;15.224;2023-09-19T07:22:52;17.00;99.90
16160;DHT22;8185;57.818;15.224;2023-09-19T07:25:21;16.90;99.90
16160;DHT22;8185;57.818;15.224;2023-09-19T07:27:48;17.00;99.90
16160;DHT22;8185;57.818;15.224;2023-09-19T07:30:18;17.10;99.90
16160;DHT22;8185;57.818;15.224;2023-09-19T07:32:46;17.10;99.90
16160;DHT22;8185;57.818;15.224;2023-09-19T07:35:14;17.10;99.90
16160;DHT22;8185;57.818;15.224;2023-09-19T07:37:42;16.80;99.90
16160;DHT22;8185;57.818;15.224;2023-09-19T07:40:10;16.60;99.90
16160;DHT22;8185;57.818;15.224;2023-09-19T07:42:39;16.30;99.90
16160;DHT22;8185;57.818;15.224;2023-09-19T07:45:07;15.90;99.90
16160;DHT22;8185;57.818;15.224;2023-09-19T07:47:36;15.20;99.90
16160;DHT22;8185;57.818;15.224;2023-09-19T07:50:06;14.70;99.90
16160;DHT22;8185;57.818;15.224;2023-09-19T07:52:33;14.50;99.90
16160;DHT22;8185;57.818;15.224;2023-09-19T07:55:00;14.40;99.90
16160;DHT22;8185;57.818;15.224;2023-09-19T07:57:35;14.40;99.90
16160;DHT22;8185;57.818;15.224;2023-09-19T08:00:04;14.40;99.90
16160;DHT22;8185;57.818;15.224;2023-09-19T08:02:36;14.40;99.90
16160;DHT22;8185;57.818;15.224;2023-09-19T08:05:05;14.50;99.90
16160;DHT22;8185;57.818;15.224;2023-09-19T08:07:36;14.50;99.90
16160;DHT22;8185;57.818;15.224;2023-09-19T08:10:04;14.60;99.90
16160;DHT22;8185;57.818;15.224;2023-09-19T08:12:34;14.60;99.90
16160;DHT22;8185;57.818;15.224;2023-09-19T08:15:03;14.70;99.90
16160;DHT22;8185;57.818;15.224;2023-09-19T08:17:35;14.80;99.90
16160;DHT22;8185;57.818;15.224;2023-09-19T08:20:03;14.90;99.90
16160;DHT22;8185;57.818;15.224;2023-09-19T08:22:31;15.10;99.90
16160;DHT22;8185;57.818;15.224;2023-09-19T08:24:59;15.20;99.90
16160;DHT22;8185;57.818;15.224;2023-09-19T08:27:30;15.30;99.90
16160;DHT22;8185;57.818;15.224;2023-09-19T08:29:58;15.20;99.90
16160;DHT22;8185;57.818;15.224;2023-09-19T08:32:25;15.20;99.90
16160;DHT22;8185;57.818;15.224;2023-09-19T08:34:55;15.20;99.90
16160;DHT22;8185;57.818;15.224;2023-09-19T08:37:22;15.20;99.90
16160;DHT22;8185;57.818;15.224;2023-09-19T08:39:50;15.30;99.90
16160;DHT22;8185;57.818;15.224;2023-09-19T08:42:17;15.40;99.90
16160;DHT22;8185;57.818;15.224;2023-09-19T08:44:47;15.50;99.90
16160;DHT22;8185;57.818;15.224;2023-09-19T08:47:15;15.60;99.90
16160;DHT22;8185;57.818;15.224;2023-09-19T08:49:54;15.70;99.90
16160;DHT22;8185;57.818;15.224;2023-09-19T08:52:30;15.90;99.90
16160;DHT22;8185;57.818;15.224;2023-09-19T08:55:02;15.90;99.90
16160;DHT22;8185;57.818;15.224;2023-09-19T08:57:37;15.70;99.90
16160;DHT22;8185;57.818;15.224;2023-09-19T09:00:08;15.60;99.90
16160;DHT22;8185;57.818;15.224;2023-09-19T09:02:37;15.60;99.90
16160;DHT22;8185;57.818;15.224;2023-09-19T09:05:08;15.60;99.90
16160;DHT22;8185;57.818;15.224;2023-09-19T09:07:38;15.80;99.90
16160;DHT22;8185;57.818;15.224;2023-09-19T09:10:07;15.90;99.90
16160;DHT22;8185;57.818;15.224;2023-09-19T09:12:35;16.00;99.90
16160;DHT22;8185;57.818;15.224;2023-09-19T09:15:06;16.20;99.90
16160;DHT22;8185;57.818;15.224;2023-09-19T09:17:34;16.30;99.90
16160;DHT22;8185;57.818;15.224;2023-09-19T09:20:02;16.00;99.90
16160;DHT22;8185;57.818;15.224;2023-09-19T09:22:34;15.70;99.90
16160;DHT22;8185;57.818;15.224;2023-09-19T09:25:04;15.80;99.90
16160;DHT22;8185;57.818;15.224;2023-09-19T09:27:32;15.80;99.90
16160;DHT22;8185;57.818;15.224;2023-09-19T09:30:00;16.00;99.90
16160;DHT22;8185;57.818;15.224;2023-09-19T09:32:29;16.00;99.90
16160;DHT22;8185;57.818;15.224;2023-09-19T09:35:01;15.90;99.90
16160;DHT22;8185;57.818;15.224;2023-09-19T09:37:30;15.90;99.90
16160;DHT22;8185;57.818;15.224;2023-09-19T09:39:58;15.70;99.90
16160;DHT22;8185;57.818;15.224;2023-09-19T09:42:46;15.80;99.90
16160;DHT22;8185;57.818;15.224;2023-09-19T09:45:19;15.70;99.90
16160;DHT22;8185;57.818;15.224;2023-09-19T09:47:54;15.70;99.90
16160;DHT22;8185;57.818;15.224;2023-09-19T09:50:26;15.60;99.90
16160;DHT22;8185;57.818;15.224;2023-09-19T09:52:56;15.50;99.90
16160;DHT22;8185;57.818;15.224;2023-09-19T09:55:57;15.40;99.90
16160;DHT22;8185;57.818;15.224;2023-09-19T09:58:27;15.40;99.90
16160;DHT22;8185;57.818;15.224;2023-09-19T10:00:59;15.40;99.90
16160;DHT22;8185;57.818;15.224;2023-09-19T10:03:35;15.80;99.90
16160;DHT22;8185;57.818;15.224;2023-09-19T10:06:07;16.30;99.90
16160;DHT22;8185;57.818;15.224;2023-09-19T10:09:04;16.50;99.90
16160;DHT22;8185;57.818;15.224;2023-09-19T10:11:44;17.50;99.90
16160;DHT22;8185;57.818;15.224;2023-09-19T10:14:15;17.50;99.90
16160;DHT22;8185;57.818;15.224;2023-09-19T10:16:47;17.40;99.90
16160;DHT22;8185;57.818;15.224;2023-09-19T10:19:20;17.00;99.90
16160;DHT22;8185;57.818;15.224;2023-09-19T10:21:50;16.70;99.90
16160;DHT22;8185;57.818;15.224;2023-09-19T10:24:22;16.80;99.90
16160;DHT22;8185;57.818;15.224;2023-09-19T10:26:51;16.90;99.90
16160;DHT22;8185;57.818;15.224;2023-09-19T10:29:23;17.50;99.90
16160;DHT22;8185;57.818;15.224;2023-09-19T10:31:53;17.80;99.90
16160;DHT22;8185;57.818;15.224;2023-09-19T10:34:22;18.00;99.90
16160;DHT22;8185;57.818;15.224;2023-09-19T10:36:51;18.70;99.90
16160;DHT22;8185;57.818;15.224;2023-09-19T10:39:21;19.00;99.90
16160;DHT22;8185;57.818;15.224;2023-09-19T10:41:51;18.50;99.90
16160;DHT22;8185;57.818;15.224;2023-09-19T10:44:24;17.80;99.90
16160;DHT22;8185;57.818;15.224;2023-09-19T10:46:52;17.40;99.90
16160;DHT22;8185;57.818;15.224;2023-09-19T10:49:20;16.70;99.90
16160;DHT22;8185;57.818;15.224;2023-09-19T10:51:51;16.40;99.90
16160;DHT22;8185;57.818;15.224;2023-09-19T10:54:23;16.10;99.90
16160;DHT22;8185;57.818;15.224;2023-09-19T10:56:54;16.10;99.90
16160;DHT22;8185;57.818;15.224;2023-09-19T10:59:26;16.20;99.90
16160;DHT22;8185;57.818;15.224;2023-09-19T11:02:16;16.00;99.90
16160;DHT22;8185;57.818;15.224;2023-09-19T11:04:44;15.60;99.90
16160;DHT22;8185;57.818;15.224;2023-09-19T11:07:15;15.50;99.90
16160;DHT22;8185;57.818;15.224;2023-09-19T11:09:46;15.50;99.90
16160;DHT22;8185;57.818;15.224;2023-09-19T11:12:47;15.50;99.90
16160;DHT22;8185;57.818;15.224;2023-09-19T11:18:54;15.40;99.90
16160;DHT22;8185;57.818;15.224;2023-09-19T11:21:55;15.30;99.90
16160;DHT22;8185;57.818;15.224;2023-09-19T11:24:29;15.10;99.90
16160;DHT22;8185;57.818;15.224;2023-09-19T11:27:10;15.00;99.90
16160;DHT22;8185;57.818;15.224;2023-09-19T11:29:40;14.80;99.90
16160;DHT22;8185;57.818;15.224;2023-09-19T11:32:07;14.80;99.90
16160;DHT22;8185;57.818;15.224;2023-09-19T11:34:44;14.80;99.90
16160;DHT22;8185;57.818;15.224;2023-09-19T11:40:45;14.80;99.90
16160;DHT22;8185;57.818;15.224;2023-09-19T11:43:33;14.70;99.90
16160;DHT22;8185;57.818;15.224;2023-09-19T11:46:03;14.70;99.90
16160;DHT22;8185;57.818;15.224;2023-09-19T11:48:32;14.60;99.90
16160;DHT22;8185;57.818;15.224;2023-09-19T11:51:16;14.60;99.90
16160;DHT22;8185;57.818;15.224;2023-09-19T11:53:49;14.70;99.90
16160;DHT22;8185;57.818;15.224;2023-09-19T11:56:18;14.90;99.90
16160;DHT22;8185;57.818;15.224;2023-09-19T11:58:46;15.10;99.90
16160;DHT22;8185;57.818;15.224;2023-09-19T12:01:22;15.10;99.90
16160;DHT22;8185;57.818;15.224;2023-09-19T12:03:54;15.20;99.90
16160;DHT22;8185;57.818;15.224;2023-09-19T12:06:25;15.30;99.90
16160;DHT22;8185;57.818;15.224;2023-09-19T12:08:53;15.50;99.90
16160;DHT22;8185;57.818;15.224;2023-09-19T12:11:23;15.50;99.90
16160;DHT22;8185;57.818;15.224;2023-09-19T12:13:52;15.50;99.90
16160;DHT22;8185;57.818;15.224;2023-09-19T12:16:23;15.50;99.90
16160;DHT22;8185;57.818;15.224;2023-09-19T12:18:51;15.20;99.90
16160;DHT22;8185;57.818;15.224;2023-09-19T12:21:30;15.20;99.90
16160;DHT22;8185;57.818;15.224;2023-09-19T12:24:12;15.30;99.90
16160;DHT22;8185;57.818;15.224;2023-09-19T12:26:43;15.40;99.90
16160;DHT22;8185;57.818;15.224;2023-09-19T12:29:15;15.30;99.90
16160;DHT22;8185;57.818;15.224;2023-09-19T12:31:55;15.10;99.90
16160;DHT22;8185;57.818;15.224;2023-09-19T12:34:27;14.90;99.90
16160;DHT22;8185;57.818;15.224;2023-09-19T12:37:07;14.80;99.90
16160;DHT22;8185;57.818;15.224;2023-09-19T12:39:48;14.80;99.90
16160;DHT22;8185;57.818;15.224;2023-09-19T12:42:18;14.60;99.90
16160;DHT22;8185;57.818;15.224;2023-09-19T12:44:48;14.70;99.90
16160;DHT22;8185;57.818;15.224;2023-09-19T12:47:18;14.90;99.90
16160;DHT22;8185;57.818;15.224;2023-09-19T12:50:09;14.90;99.90
16160;DHT22;8185;57.818;15.224;2023-09-19T12:52:53;14.90;99.90
16160;DHT22;8185;57.818;15.224;2023-09-19T12:55:23;14.80;99.90
16160;DHT22;8185;57.818;15.224;2023-09-19T12:58:08;14.70;99.90
16160;DHT22;8185;57.818;15.224;2023-09-19T13:00:38;14.80;99.90
16160;DHT22;8185;57.818;15.224;2023-09-19T13:03:12;14.80;99.90
16160;DHT22;8185;57.818;15.224;2023-09-19T13:05:52;14.80;99.90
16160;DHT22;8185;57.818;15.224;2023-09-19T13:08:24;15.00;99.90
16160;DHT22;8185;57.818;15.224;2023-09-19T13:11:04;15.10;99.90
16160;DHT22;8185;57.818;15.224;2023-09-19T13:13:39;15.20;99.90
16160;DHT22;8185;57.818;15.224;2023-09-19T13:16:07;15.30;99.90
16160;DHT22;8185;57.818;15.224;2023-09-19T13:18:49;15.00;99.90
16160;DHT22;8185;57.818;15.224;2023-09-19T13:21:29;15.00;99.90
16160;DHT22;8185;57.818;15.224;2023-09-19T13:24:20;15.20;99.90
16160;DHT22;8185;57.818;15.224;2023-09-19T13:26:48;15.20;99.90
16160;DHT22;8185;57.818;15.224;2023-09-19T13:29:16;15.10;99.90
16160;DHT22;8185;57.818;15.224;2023-09-19T13:31:46;15.10;99.90
16160;DHT22;8185;57.818;15.224;2023-09-19T13:34:14;15.00;99.90
16160;DHT22;8185;57.818;15.224;2023-09-19T13:36:43;15.20;99.90
16160;DHT22;8185;57.818;15.224;2023-09-19T13:39:11;15.20;99.90
16160;DHT22;8185;57.818;15.224;2023-09-19T13:41:44;15.30;99.90
16160;DHT22;8185;57.818;15.224;2023-09-19T13:44:12;14.90;99.90
16160;DHT22;8185;57.818;15.224;2023-09-19T13:46:40;14.70;99.90
16160;DHT22;8185;57.818;15.224;2023-09-19T13:49:11;14.60;99.90
16160;DHT22;8185;57.818;15.224;2023-09-19T13:51:39;14.50;99.90
16160;DHT22;8185;57.818;15.224;2023-09-19T13:54:09;14.50;99.90
16160;DHT22;8185;57.818;15.224;2023-09-19T13:56:38;14.60;99.90
16160;DHT22;8185;57.818;15.224;2023-09-19T13:59:07;14.60;99.90
16160;DHT22;8185;57.818;15.224;2023-09-19T14:01:35;14.60;99.90
16160;DHT22;8185;57.818;15.224;2023-09-19T14:04:02;14.80;99.90
16160;DHT22;8185;57.818;15.224;2023-09-19T14:06:30;14.80;99.90
16160;DHT22;8185;57.818;15.224;2023-09-19T14:08:59;15.40;99.90
16160;DHT22;8185;57.818;15.224;2023-09-19T14:11:27;15.70;99.90
16160;DHT22;8185;57.818;15.224;2023-09-19T14:13:54;16.30;99.90
16160;DHT22;8185;57.818;15.224;2023-09-19T14:16:23;16.00;99.90
16160;DHT22;8185;57.818;15.224;2023-09-19T14:18:56;16.50;99.90
16160;DHT22;8185;57.818;15.224;2023-09-19T14:21:24;17.20;99.90
16160;DHT22;8185;57.818;15.224;2023-09-19T14:23:51;17.40;99.90
16160;DHT22;8185;57.818;15.224;2023-09-19T14:26:20;17.10;99.90
16160;DHT22;8185;57.818;15.224;2023-09-19T14:28:49;16.70;99.90
16160;DHT22;8185;57.818;15.224;2023-09-19T14:31:16;16.60;99.90
16160;DHT22;8185;57.818;15.224;2023-09-19T14:33:45;16.90;99.90
16160;DHT22;8185;57.818;15.224;2023-09-19T14:36:13;16.70;99.90
16160;DHT22;8185;57.818;15.224;2023-09-19T14:38:40;15.90;99.90
16160;DHT22;8185;57.818;15.224;2023-09-19T14:41:08;15.70;99.90
16160;DHT22;8185;57.818;15.224;2023-09-19T14:43:36;15.60;99.90
16160;DHT22;8185;57.818;15.224;2023-09-19T14:46:04;16.00;99.90
16160;DHT22;8185;57.818;15.224;2023-09-19T14:48:33;15.50;99.90
16160;DHT22;8185;57.818;15.224;2023-09-19T14:51:07;15.80;99.90
16160;DHT22;8185;57.818;15.224;2023-09-19T14:53:35;16.20;99.90
16160;DHT22;8185;57.818;15.224;2023-09-19T14:56:04;16.30;99.90
16160;DHT22;8185;57.818;15.224;2023-09-19T14:58:32;16.50;99.90
16160;DHT22;8185;57.818;15.224;2023-09-19T15:01:06;16.70;99.90
16160;DHT22;8185;57.818;15.224;2023-09-19T15:03:37;16.40;99.90
16160;DHT22;8185;57.818;15.224;2023-09-19T15:06:08;16.40;99.90
16160;DHT22;8185;57.818;15.224;2023-09-19T15:08:37;16.70;99.90
16160;DHT22;8185;57.818;15.224;2023-09-19T15:11:06;16.50;99.90
16160;DHT22;8185;57.818;15.224;2023-09-19T15:13:34;15.90;99.90
16160;DHT22;8185;57.818;15.224;2023-09-19T15:16:02;15.30;99.90
16160;DHT22;8185;57.818;15.224;2023-09-19T15:18:31;15.00;99.90
16160;DHT22;8185;57.818;15.224;2023-09-19T15:21:01;14.80;99.90
16160;DHT22;8185;57.818;15.224;2023-09-19T15:23:31;14.70;99.90
16160;DHT22;8185;57.818;15.224;2023-09-19T15:26:00;14.60;99.90
16160;DHT22;8185;57.818;15.224;2023-09-19T15:28:28;14.50;99.90
16160;DHT22;8185;57.818;15.224;2023-09-19T15:31:00;14.30;99.90
16160;DHT22;8185;57.818;15.224;2023-09-19T15:33:28;14.10;99.90
16160;DHT22;8185;57.818;15.224;2023-09-19T15:36:03;14.00;99.90
16160;DHT22;8185;57.818;15.224;2023-09-19T15:38:55;14.10;99.90
16160;DHT22;8185;57.818;15.224;2023-09-19T15:41:24;14.00;99.90
16160;DHT22;8185;57.818;15.224;2023-09-19T15:43:52;13.90;99.90
16160;DHT22;8185;57.818;15.224;2023-09-19T15:46:19;13.80;99.90
16160;DHT22;8185;57.818;15.224;2023-09-19T15:48:47;13.70;99.90
16160;DHT22;8185;57.818;15.224;2023-09-19T15:51:16;13.70;99.90
16160;DHT22;8185;57.818;15.224;2023-09-19T15:53:47;13.70;99.90
16160;DHT22;8185;57.818;15.224;2023-09-19T15:56:15;13.70;99.90
16160;DHT22;8185;57.818;15.224;2023-09-19T15:58:44;13.60;99.90
16160;DHT22;8185;57.818;15.224;2023-09-19T16:01:12;13.60;99.90